sensor_id;sensor_type;location;lat;lon;timestamp;P1;durP1;ratioP1;P2;durP2;ratioP2
25199;SDS011;33094;48.782;9.162;2024-03-23T00:52:21;4.28;;;3.20;;
25199;SDS011;33094;48.782;9.162;2024-03-23T00:54:47;7.93;;;3.33;;
25199;SDS011;33094;48.782;9.162;2024-03-23T00:57:13;7.55;;;3.15;;
25199;SDS011;33094;48.782;9.162;2024-03-23T00:59:38;5.00;;;3.40;;
25199;SDS011;33094;48.782;9.162;2024-03-23T01:02:04;5.90;;;3.33;;
25199;SDS011;33094;48.782;9.162;2024-03-23T01:04:29;4.40;;;3.17;;
25199;SDS011;33094;48.782;9.162;2024-03-23T01:06:55;4.97;;;3.22;;
25199;SDS011;33094;48.782;9.162;2024-03-23T01:09:20;8.27;;;3.15;;
25199;SDS011;33094;48.782;9.162;2024-03-23T01:11:47;7.68;;;2.83;;
25199;SDS011;33094;48.782;9.162;2024-03-23T01:14:13;7.97;;;3.20;;
25199;SDS011;33094;48.782;9.162;2024-03-23T01:16:39;5.55;;;3.15;;
25199;SDS011;33094;48.782;9.162;2024-03-23T01:19:04;4.28;;;2.47;;
25199;SDS011;33094;48.782;9.162;2024-03-23T01:21:31;6.60;;;2.88;;
25199;SDS011;33094;48.782;9.162;2024-03-23T01:23:57;4.90;;;2.88;;
25199;SDS011;33094;48.782;9.162;2024-03-23T01:26:22;5.13;;;2.58;;
25199;SDS011;33094;48.782;9.162;2024-03-23T01:28:48;3.47;;;2.40;;
25199;SDS011;33094;48.782;9.162;2024-03-23T01:31:13;6.75;;;2.80;;
25199;SDS011;33094;48.782;9.162;2024-03-23T01:33:42;11.23;;;3.08;;
25199;SDS011;33094;48.782;9.162;2024-03-23T01:36:10;4.53;;;2.50;;
25199;SDS011;33094;48.782;9.162;2024-03-23T01:38:36;8.50;;;2.92;;
25199;SDS011;33094;48.782;9.162;2024-03-23T01:41:01;5.40;;;2.95;;
25199;SDS011;33094;48.782;9.162;2024-03-23T01:43:27;3.78;;;2.55;;
25199;SDS011;33094;48.782;9.162;2024-03-23T01:45:53;4.13;;;2.35;;
25199;SDS011;33094;48.782;9.162;2024-03-23T01:48:19;6.65;;;2.75;;
25199;SDS011;33094;48.782;9.162;2024-03-23T01:53:11;5.33;;;2.80;;
25199;SDS011;33094;48.782;9.162;2024-03-23T01:55:38;3.42;;;2.30;;
25199;SDS011;33094;48.782;9.162;2024-03-23T01:58:04;5.65;;;2.92;;
25199;SDS011;33094;48.782;9.162;2024-03-23T02:00:29;4.43;;;1.95;;
25199;SDS011;33094;48.782;9.162;2024-03-23T02:02:55;2.58;;;2.00;;
25199;SDS011;33094;48.782;9.162;2024-03-23T02:05:21;6.03;;;2.30;;
25199;SDS011;33094;48.782;9.162;2024-03-23T02:07:47;3.75;;;2.15;;
25199;SDS011;33094;48.782;9.162;2024-03-23T02:10:15;4.57;;;2.15;;
25199;SDS011;33094;48.782;9.162;2024-03-23T02:12:41;3.95;;;2.40;;
25199;SDS011;33094;48.782;9.162;2024-03-23T02:15:07;4.93;;;2.30;;
25199;SDS011;33094;48.782;9.162;2024-03-23T02:17:34;3.90;;;2.30;;
25199;SDS011;33094;48.782;9.162;2024-03-23T02:20:00;4.32;;;2.58;;
25199;SDS011;33094;48.782;9.162;2024-03-23T02:22:40;4.65;;;2.58;;
25199;SDS011;33094;48.782;9.162;2024-03-23T02:25:06;3.67;;;2.28;;
25199;SDS011;33094;48.782;9.162;2024-03-23T02:27:42;4.15;;;2.08;;
25199;SDS011;33094;48.782;9.162;2024-03-23T02:30:08;5.22;;;2.28;;
25199;SDS011;33094;48.782;9.162;2024-03-23T02:32:34;3.28;;;2.33;;
25199;SDS011;33094;48.782;9.162;2024-03-23T02:34:59;3.03;;;2.40;;
25199;SDS011;33094;48.782;9.162;2024-03-23T02:37:25;2.55;;;2.03;;
25199;SDS011;33094;48.782;9.162;2024-03-23T02:39:51;47.28;;;6.85;;
25199;SDS011;33094;48.782;9.162;2024-03-23T02:42:16;5.55;;;3.00;;
25199;SDS011;33094;48.782;9.162;2024-03-23T02:44:43;7.40;;;2.95;;
25199;SDS011;33094;48.782;9.162;2024-03-23T02:47:09;10.52;;;2.95;;
25199;SDS011;33094;48.782;9.162;2024-03-23T02:49:35;9.68;;;3.38;;
25199;SDS011;33094;48.782;9.162;2024-03-23T02:52:00;14.13;;;3.20;;
25199;SDS011;33094;48.782;9.162;2024-03-23T02:54:26;5.72;;;2.50;;
25199;SDS011;33094;48.782;9.162;2024-03-23T02:56:52;10.45;;;2.08;;
25199;SDS011;33094;48.782;9.162;2024-03-23T02:59:17;13.35;;;2.30;;
25199;SDS011;33094;48.782;9.162;2024-03-23T03:01:43;2.40;;;1.80;;
25199;SDS011;33094;48.782;9.162;2024-03-23T03:04:08;3.45;;;1.58;;
25199;SDS011;33094;48.782;9.162;2024-03-23T03:06:34;11.05;;;1.85;;
25199;SDS011;33094;48.782;9.162;2024-03-23T03:09:00;2.03;;;1.42;;
25199;SDS011;33094;48.782;9.162;2024-03-23T03:11:25;3.17;;;1.95;;
25199;SDS011;33094;48.782;9.162;2024-03-23T03:13:52;3.55;;;2.30;;
25199;SDS011;33094;48.782;9.162;2024-03-23T03:16:17;3.53;;;2.17;;
25199;SDS011;33094;48.782;9.162;2024-03-23T03:18:43;2.80;;;1.90;;
25199;SDS011;33094;48.782;9.162;2024-03-23T03:21:11;2.70;;;1.70;;
25199;SDS011;33094;48.782;9.162;2024-03-23T03:23:37;3.70;;;1.88;;
25199;SDS011;33094;48.782;9.162;2024-03-23T03:26:04;1.65;;;1.55;;
25199;SDS011;33094;48.782;9.162;2024-03-23T03:28:31;1.83;;;1.48;;
25199;SDS011;33094;48.782;9.162;2024-03-23T03:30:58;2.65;;;1.52;;
25199;SDS011;33094;48.782;9.162;2024-03-23T03:33:27;3.60;;;1.58;;
25199;SDS011;33094;48.782;9.162;2024-03-23T03:35:53;1.20;;;0.90;;
25199;SDS011;33094;48.782;9.162;2024-03-23T03:38:21;1.80;;;1.25;;
25199;SDS011;33094;48.782;9.162;2024-03-23T03:40:47;1.20;;;0.82;;
25199;SDS011;33094;48.782;9.162;2024-03-23T03:43:13;10.20;;;1.15;;
25199;SDS011;33094;48.782;9.162;2024-03-23T03:45:39;3.05;;;0.90;;
25199;SDS011;33094;48.782;9.162;2024-03-23T03:48:05;1.00;;;0.90;;
25199;SDS011;33094;48.782;9.162;2024-03-23T03:50:31;3.17;;;1.40;;
25199;SDS011;33094;48.782;9.162;2024-03-23T03:52:56;1.80;;;1.23;;
25199;SDS011;33094;48.782;9.162;2024-03-23T03:55:22;1.80;;;1.15;;
25199;SDS011;33094;48.782;9.162;2024-03-23T03:57:48;1.48;;;1.20;;
25199;SDS011;33094;48.782;9.162;2024-03-23T04:00:13;1.88;;;1.50;;
25199;SDS011;33094;48.782;9.162;2024-03-23T04:02:39;1.50;;;0.95;;
25199;SDS011;33094;48.782;9.162;2024-03-23T04:05:05;1.48;;;1.10;;
25199;SDS011;33094;48.782;9.162;2024-03-23T04:07:34;5.25;;;1.35;;
25199;SDS011;33094;48.782;9.162;2024-03-23T04:10:00;0.73;;;0.73;;
25199;SDS011;33094;48.782;9.162;2024-03-23T04:12:25;3.85;;;1.27;;
25199;SDS011;33094;48.782;9.162;2024-03-23T04:14:51;1.52;;;1.30;;
25199;SDS011;33094;48.782;9.162;2024-03-23T04:17:17;1.77;;;1.20;;
25199;SDS011;33094;48.782;9.162;2024-03-23T04:19:43;1.75;;;1.13;;
25199;SDS011;33094;48.782;9.162;2024-03-23T04:22:09;2.28;;;1.40;;
25199;SDS011;33094;48.782;9.162;2024-03-23T04:24:35;1.50;;;1.40;;
25199;SDS011;33094;48.782;9.162;2024-03-23T04:27:02;1.42;;;1.05;;
25199;SDS011;33094;48.782;9.162;2024-03-23T04:29:28;3.27;;;1.10;;
25199;SDS011;33094;48.782;9.162;2024-03-23T04:31:53;2.40;;;1.38;;
25199;SDS011;33094;48.782;9.162;2024-03-23T04:34:20;2.33;;;2.08;;
25199;SDS011;33094;48.782;9.162;2024-03-23T04:36:45;2.67;;;1.38;;
25199;SDS011;33094;48.782;9.162;2024-03-23T04:39:11;1.77;;;1.20;;
25199;SDS011;33094;48.782;9.162;2024-03-23T04:41:37;1.20;;;1.10;;
25199;SDS011;33094;48.782;9.162;2024-03-23T04:44:03;1.40;;;1.30;;
25199;SDS011;33094;48.782;9.162;2024-03-23T04:46:28;0.93;;;0.93;;
25199;SDS011;33094;48.782;9.162;2024-03-23T04:48:54;1.25;;;0.90;;
25199;SDS011;33094;48.782;9.162;2024-03-23T04:51:22;1.85;;;1.75;;
25199;SDS011;33094;48.782;9.162;2024-03-23T04:53:48;2.47;;;2.25;;
25199;SDS011;33094;48.782;9.162;2024-03-23T04:56:14;4.53;;;2.15;;
25199;SDS011;33094;48.782;9.162;2024-03-23T04:58:40;1.95;;;1.73;;
25199;SDS011;33094;48.782;9.162;2024-03-23T05:01:06;4.65;;;1.70;;
25199;SDS011;33094;48.782;9.162;2024-03-23T05:03:31;4.40;;;2.22;;
25199;SDS011;33094;48.782;9.162;2024-03-23T05:05:57;2.60;;;1.92;;
25199;SDS011;33094;48.782;9.162;2024-03-23T05:08:23;4.33;;;1.60;;
25199;SDS011;33094;48.782;9.162;2024-03-23T05:10:49;3.65;;;2.28;;
25199;SDS011;33094;48.782;9.162;2024-03-23T05:13:14;5.30;;;3.00;;
25199;SDS011;33094;48.782;9.162;2024-03-23T05:15:40;3.13;;;2.42;;
25199;SDS011;33094;48.782;9.162;2024-03-23T05:18:06;6.65;;;3.28;;
25199;SDS011;33094;48.782;9.162;2024-03-23T05:20:31;7.07;;;3.83;;
25199;SDS011;33094;48.782;9.162;2024-03-23T05:22:59;8.63;;;4.10;;
25199;SDS011;33094;48.782;9.162;2024-03-23T05:25:25;7.15;;;3.63;;
25199;SDS011;33094;48.782;9.162;2024-03-23T05:27:50;6.45;;;3.70;;
25199;SDS011;33094;48.782;9.162;2024-03-23T05:30:16;8.15;;;4.30;;
25199;SDS011;33094;48.782;9.162;2024-03-23T05:32:41;6.65;;;4.38;;
25199;SDS011;33094;48.782;9.162;2024-03-23T05:35:07;5.32;;;2.90;;
25199;SDS011;33094;48.782;9.162;2024-03-23T05:37:34;7.25;;;4.80;;
25199;SDS011;33094;48.782;9.162;2024-03-23T05:40:00;9.88;;;5.30;;
25199;SDS011;33094;48.782;9.162;2024-03-23T05:42:26;8.10;;;4.68;;
25199;SDS011;33094;48.782;9.162;2024-03-23T05:44:52;6.63;;;3.60;;
25199;SDS011;33094;48.782;9.162;2024-03-23T05:47:18;7.63;;;4.70;;
25199;SDS011;33094;48.782;9.162;2024-03-23T05:49:44;6.97;;;4.38;;
25199;SDS011;33094;48.782;9.162;2024-03-23T05:52:11;5.25;;;3.28;;
25199;SDS011;33094;48.782;9.162;2024-03-23T05:54:37;9.38;;;4.68;;
25199;SDS011;33094;48.782;9.162;2024-03-23T05:57:02;8.02;;;4.10;;
25199;SDS011;33094;48.782;9.162;2024-03-23T05:59:28;8.63;;;3.53;;
25199;SDS011;33094;48.782;9.162;2024-03-23T06:01:54;4.43;;;2.30;;
25199;SDS011;33094;48.782;9.162;2024-03-23T06:04:20;2.75;;;1.98;;
25199;SDS011;33094;48.782;9.162;2024-03-23T06:06:47;4.18;;;1.60;;
25199;SDS011;33094;48.782;9.162;2024-03-23T06:09:13;2.05;;;1.58;;
25199;SDS011;33094;48.782;9.162;2024-03-23T06:11:38;2.53;;;1.30;;
25199;SDS011;33094;48.782;9.162;2024-03-23T06:14:04;2.85;;;1.55;;
25199;SDS011;33094;48.782;9.162;2024-03-23T06:16:32;3.55;;;1.50;;
25199;SDS011;33094;48.782;9.162;2024-03-23T06:18:58;1.02;;;0.98;;
25199;SDS011;33094;48.782;9.162;2024-03-23T06:21:24;1.38;;;0.95;;
25199;SDS011;33094;48.782;9.162;2024-03-23T06:23:53;3.95;;;1.73;;
25199;SDS011;33094;48.782;9.162;2024-03-23T06:26:21;1.33;;;0.98;;
25199;SDS011;33094;48.782;9.162;2024-03-23T06:28:47;1.90;;;1.00;;
25199;SDS011;33094;48.782;9.162;2024-03-23T06:31:19;2.05;;;0.90;;
25199;SDS011;33094;48.782;9.162;2024-03-23T06:33:44;2.38;;;1.20;;
25199;SDS011;33094;48.782;9.162;2024-03-23T06:36:13;0.32;;;0.30;;
25199;SDS011;33094;48.782;9.162;2024-03-23T06:38:39;0.10;;;0.10;;
25199;SDS011;33094;48.782;9.162;2024-03-23T06:41:05;0.85;;;0.45;;
25199;SDS011;33094;48.782;9.162;2024-03-23T06:43:33;0.17;;;0.17;;
25199;SDS011;33094;48.782;9.162;2024-03-23T06:45:59;0.20;;;0.20;;
25199;SDS011;33094;48.782;9.162;2024-03-23T06:48:25;0.20;;;0.10;;
25199;SDS011;33094;48.782;9.162;2024-03-23T06:50:55;0.00;;;0.00;;
25199;SDS011;33094;48.782;9.162;2024-03-23T06:53:21;0.32;;;0.10;;
25199;SDS011;33094;48.782;9.162;2024-03-23T06:55:50;0.10;;;0.10;;
25199;SDS011;33094;48.782;9.162;2024-03-23T06:58:19;0.20;;;0.20;;
25199;SDS011;33094;48.782;9.162;2024-03-23T07:00:50;0.13;;;0.13;;
25199;SDS011;33094;48.782;9.162;2024-03-23T07:03:19;0.10;;;0.10;;
25199;SDS011;33094;48.782;9.162;2024-03-23T07:05:46;0.10;;;0.00;;
25199;SDS011;33094;48.782;9.162;2024-03-23T07:08:14;0.10;;;0.10;;
25199;SDS011;33094;48.782;9.162;2024-03-23T07:10:46;0.10;;;0.10;;
25199;SDS011;33094;48.782;9.162;2024-03-23T07:13:11;0.00;;;0.00;;
25199;SDS011;33094;48.782;9.162;2024-03-23T07:15:37;0.13;;;0.13;;
25199;SDS011;33094;48.782;9.162;2024-03-23T07:18:02;0.10;;;0.10;;
25199;SDS011;33094;48.782;9.162;2024-03-23T07:20:28;0.03;;;0.03;;
25199;SDS011;33094;48.782;9.162;2024-03-23T07:22:56;0.05;;;0.05;;
25199;SDS011;33094;48.782;9.162;2024-03-23T07:25:25;0.05;;;0.05;;
25199;SDS011;33094;48.782;9.162;2024-03-23T07:27:53;0.00;;;0.00;;
25199;SDS011;33094;48.782;9.162;2024-03-23T07:30:18;0.00;;;0.00;;
25199;SDS011;33094;48.782;9.162;2024-03-23T07:32:44;0.10;;;0.00;;
25199;SDS011;33094;48.782;9.162;2024-03-23T07:35:10;0.00;;;0.00;;
25199;SDS011;33094;48.782;9.162;2024-03-23T07:37:36;0.00;;;0.00;;
25199;SDS011;33094;48.782;9.162;2024-03-23T07:40:01;0.10;;;0.10;;
25199;SDS011;33094;48.782;9.162;2024-03-23T07:42:27;0.10;;;0.10;;
25199;SDS011;33094;48.782;9.162;2024-03-23T07:44:54;0.00;;;0.00;;
25199;SDS011;33094;48.782;9.162;2024-03-23T07:47:21;0.20;;;0.20;;
25199;SDS011;33094;48.782;9.162;2024-03-23T07:49:47;0.10;;;0.08;;
25199;SDS011;33094;48.782;9.162;2024-03-23T07:52:13;0.30;;;0.30;;
25199;SDS011;33094;48.782;9.162;2024-03-23T07:54:39;0.00;;;0.00;;
25199;SDS011;33094;48.782;9.162;2024-03-23T07:57:04;0.00;;;0.00;;
25199;SDS011;33094;48.782;9.162;2024-03-23T07:59:31;0.00;;;0.00;;
25199;SDS011;33094;48.782;9.162;2024-03-23T08:01:58;0.00;;;0.00;;
25199;SDS011;33094;48.782;9.162;2024-03-23T08:04:24;0.28;;;0.00;;
25199;SDS011;33094;48.782;9.162;2024-03-23T08:06:50;0.28;;;0.17;;
25199;SDS011;33094;48.782;9.162;2024-03-23T08:09:16;0.20;;;0.15;;
25199;SDS011;33094;48.782;9.162;2024-03-23T08:11:41;0.22;;;0.22;;
25199;SDS011;33094;48.782;9.162;2024-03-23T08:14:10;0.25;;;0.22;;
25199;SDS011;33094;48.782;9.162;2024-03-23T08:16:36;0.10;;;0.10;;
25199;SDS011;33094;48.782;9.162;2024-03-23T08:19:01;0.40;;;0.10;;
25199;SDS011;33094;48.782;9.162;2024-03-23T08:21:28;0.00;;;0.00;;
25199;SDS011;33094;48.782;9.162;2024-03-23T08:23:54;0.00;;;0.00;;
25199;SDS011;33094;48.782;9.162;2024-03-23T08:26:19;0.00;;;0.00;;
25199;SDS011;33094;48.782;9.162;2024-03-23T08:28:45;0.10;;;0.10;;
25199;SDS011;33094;48.782;9.162;2024-03-23T08:31:11;0.00;;;0.00;;
25199;SDS011;33094;48.782;9.162;2024-03-23T08:33:37;0.00;;;0.00;;
25199;SDS011;33094;48.782;9.162;2024-03-23T08:38:31;0.00;;;0.00;;
25199;SDS011;33094;48.782;9.162;2024-03-23T08:43:23;0.20;;;0.20;;
25199;SDS011;33094;48.782;9.162;2024-03-23T08:45:48;0.00;;;0.00;;
25199;SDS011;33094;48.782;9.162;2024-03-23T08:48:14;1.75;;;0.28;;
25199;SDS011;33094;48.782;9.162;2024-03-23T08:50:40;0.00;;;0.00;;
25199;SDS011;33094;48.782;9.162;2024-03-23T08:53:05;0.08;;;0.08;;
25199;SDS011;33094;48.782;9.162;2024-03-23T08:55:31;0.08;;;0.08;;
25199;SDS011;33094;48.782;9.162;2024-03-23T08:57:57;0.22;;;0.22;;
25199;SDS011;33094;48.782;9.162;2024-03-23T09:00:22;0.17;;;0.17;;
25199;SDS011;33094;48.782;9.162;2024-03-23T09:02:48;0.00;;;0.00;;
25199;SDS011;33094;48.782;9.162;2024-03-23T09:05:13;0.20;;;0.20;;
25199;SDS011;33094;48.782;9.162;2024-03-23T09:07:39;0.73;;;0.50;;
25199;SDS011;33094;48.782;9.162;2024-03-23T09:10:05;1.80;;;0.82;;
25199;SDS011;33094;48.782;9.162;2024-03-23T09:12:31;2.05;;;0.65;;
25199;SDS011;33094;48.782;9.162;2024-03-23T09:14:57;0.00;;;0.00;;
25199;SDS011;33094;48.782;9.162;2024-03-23T09:17:22;0.32;;;0.22;;
25199;SDS011;33094;48.782;9.162;2024-03-23T09:19:48;0.10;;;0.10;;
25199;SDS011;33094;48.782;9.162;2024-03-23T09:22:16;0.10;;;0.10;;
25199;SDS011;33094;48.782;9.162;2024-03-23T09:24:42;1.92;;;0.65;;
25199;SDS011;33094;48.782;9.162;2024-03-23T09:27:08;0.90;;;0.32;;
25199;SDS011;33094;48.782;9.162;2024-03-23T09:29:33;0.10;;;0.10;;
25199;SDS011;33094;48.782;9.162;2024-03-23T09:31:59;0.00;;;0.00;;
25199;SDS011;33094;48.782;9.162;2024-03-23T09:34:24;0.88;;;0.30;;
25199;SDS011;33094;48.782;9.162;2024-03-23T09:36:51;0.10;;;0.10;;
25199;SDS011;33094;48.782;9.162;2024-03-23T09:39:17;0.20;;;0.20;;
25199;SDS011;33094;48.782;9.162;2024-03-23T09:41:43;0.82;;;0.57;;
25199;SDS011;33094;48.782;9.162;2024-03-23T09:44:08;1.00;;;0.75;;
25199;SDS011;33094;48.782;9.162;2024-03-23T09:46:34;0.85;;;0.40;;
25199;SDS011;33094;48.782;9.162;2024-03-23T09:49:01;0.30;;;0.30;;
25199;SDS011;33094;48.782;9.162;2024-03-23T09:51:29;0.10;;;0.10;;
25199;SDS011;33094;48.782;9.162;2024-03-23T09:53:56;0.05;;;0.05;;
25199;SDS011;33094;48.782;9.162;2024-03-23T09:56:22;0.28;;;0.28;;
25199;SDS011;33094;48.782;9.162;2024-03-23T09:58:48;0.00;;;0.00;;
25199;SDS011;33094;48.782;9.162;2024-03-23T10:01:14;0.22;;;0.22;;
25199;SDS011;33094;48.782;9.162;2024-03-23T10:03:46;0.90;;;0.60;;
25199;SDS011;33094;48.782;9.162;2024-03-23T10:06:12;2.65;;;2.40;;
25199;SDS011;33094;48.782;9.162;2024-03-23T10:08:40;0.50;;;0.50;;
25199;SDS011;33094;48.782;9.162;2024-03-23T10:11:12;0.28;;;0.28;;
25199;SDS011;33094;48.782;9.162;2024-03-23T10:13:40;2.72;;;0.73;;
25199;SDS011;33094;48.782;9.162;2024-03-23T10:16:08;0.45;;;0.25;;
25199;SDS011;33094;48.782;9.162;2024-03-23T10:18:38;0.93;;;0.60;;
